Flight Track Log - Related Links

Times and Time Zones

All times are in EDT time to prevent confusion due to time zone crossing. See the EJA396 flight status page for this flight to view local times or setup timezone preferences in your user account.

Time Position Orientation Groundspeed Altitude Reporting Facility
EDT Latitude Longitude Course Direction KTS MPH feet Rate Location/Type
Sun 02:03:44 PM 18.2000 -63.1333 281° West 240 276 9,800  Level San Juan Center
Sun 02:04:44 PM 18.2000 -63.2000 270° West 290 334 12,600 2,500 Climbing San Juan Center
Sun 02:05:44 PM 18.1833 -63.3000 260° West 350 403 14,800 2,132 Climbing San Juan Center
Sun 02:06:45 PM 18.1667 -63.4000 260° West 370 426 16,900 2,132 Climbing San Juan Center
Sun 02:07:45 PM 18.1500 -63.5167 261° West 390 449 19,100 2,250 Climbing San Juan Center
Sun 02:08:45 PM 18.1833 -63.6333 287° West 390 449 21,400 2,231 Climbing San Juan Center
Sun 02:09:00 PM 18.0871 -63.4622 281° West  Level FlightAware Approximate
Sun 02:09:46 PM 18.2333 -63.7333 298° West 400 460 23,600  Level San Juan Center
Sun 02:10:46 PM 18.2667 -63.8500 287° West 400 460 25,800 2,250 Climbing San Juan Center
Sun 02:11:46 PM 18.3167 -63.9667 294° West 400 460 28,100 2,231 Climbing San Juan Center
Sun 02:12:47 PM 18.3500 -64.0833 287° West 400 460 30,300 2,132 Climbing San Juan Center
Sun 02:13:47 PM 18.3833 -64.1833 289° West 400 460 32,400 2,150 Climbing San Juan Center
Sun 02:14:47 PM 18.4333 -64.2833 298° West 390 449 34,600 2,200 Climbing San Juan Center
Sun 02:15:47 PM 18.4667 -64.4000 287° West 380 437 36,800 2,000 Climbing San Juan Center
Sun 02:16:47 PM 18.5000 -64.5000 289° West 370 426 38,600 1,636 Climbing San Juan Center
Sun 02:17:48 PM 18.5500 -64.6000 298° West 360 414 40,100 1,488 Climbing San Juan Center
Sun 02:18:48 PM 18.5833 -64.7000 289° West 350 403 41,600 1,450 Climbing San Juan Center
Sun 02:19:48 PM 18.6167 -64.7833 293° West 340 391 43,000 694 Climbing San Juan Center
Sun 02:20:49 PM 18.6500 -64.8833 289° West 350 403 43,000  Level San Juan Center
Sun 02:21:49 PM 18.6833 -64.9833 289° West 370 426 43,000  Level San Juan Center
Sun 02:22:49 PM 18.7167 -65.0833 289° West 370 426 43,000  Level San Juan Center
Sun 02:23:50 PM 18.7500 -65.1833 289° West 370 426 43,000  Level San Juan Center
Sun 02:24:50 PM 18.8000 -65.3000 294° West 370 426 43,000  Level San Juan Center
Sun 02:25:51 PM 18.8333 -65.4000 289° West 370 426 43,000  Level San Juan Center
Sun 02:26:51 PM 18.8667 -65.5000 289° West 370 426 43,000  Level San Juan Center
Sun 02:27:51 PM 18.9000 -65.6000 289° West 380 437 43,000  Level San Juan Center
Sun 02:28:51 PM 18.9333 -65.7000 289° West 380 437 43,000  Level San Juan Center
Sun 02:29:52 PM 18.9833 -65.8167 294° West 380 437 43,000  Level San Juan Center
Sun 02:30:52 PM 19.0167 -65.9167 289° West 380 437 43,000  Level San Juan Center
Sun 02:31:52 PM 19.0500 -66.0167 289° West 370 426 43,000  Level San Juan Center
Sun 02:32:52 PM 19.0833 -66.1333 287° West 380 437 43,000  Level San Juan Center
Sun 02:33:53 PM 19.1167 -66.2333 289° West 380 437 43,000  Level San Juan Center
Sun 02:34:53 PM 19.1667 -66.3333 298° West 400 460 43,000  Level San Juan Center
Sun 02:35:53 PM 19.2000 -66.4333 289° West 380 437 43,000  Level San Juan Center
Sun 02:36:54 PM 19.2333 -66.5500 287° West 380 437 43,000  Level San Juan Center
Sun 02:37:54 PM 19.2833 -66.6500 298° West 380 437 43,000  Level San Juan Center
Sun 02:38:54 PM 19.3167 -66.7667 287° West 390 449 43,000  Level San Juan Center
Sun 02:39:54 PM 19.3500 -66.8667 289° West 380 437 43,000  Level San Juan Center
Sun 02:40:55 PM 19.3833 -66.9667 289° West 380 437 43,000  Level San Juan Center
Sun 02:41:55 PM 19.4167 -67.0833 287° West 390 449 43,000  Level San Juan Center
Sun 02:42:55 PM 19.4667 -67.1833 298° West 380 437 43,000  Level San Juan Center
Sun 02:43:56 PM 19.5000 -67.3000 287° West 390 449 43,000  Level San Juan Center
Sun 02:44:56 PM 19.5333 -67.4000 289° West 380 437 43,000  Level San Juan Center
Sun 02:45:56 PM 19.5667 -67.5167 287° West 390 449 43,000  Level San Juan Center
Sun 02:46:56 PM 19.6167 -67.6167 298° West 380 437 43,000  Level San Juan Center
Sun 02:47:57 PM 19.6500 -67.7167 290° West 390 449 43,000  Level San Juan Center
Sun 02:48:57 PM 19.6833 -67.8167 290° West 380 437 43,000  Level San Juan Center
Sun 02:49:57 PM 19.7167 -67.9333 287° West 380 437 43,000  Level San Juan Center
Sun 02:50:58 PM 19.7500 -68.0333 290° West 380 437 43,000  Level San Juan Center
Sun 02:52:53 PM 19.8078 -68.2497 286° West 412 474 43,000  Level Miami Center
Sun 02:53:53 PM 19.8428 -68.3575 289° West 393 452 43,000  Level Miami Center
Sun 02:54:53 PM 19.8981 -68.4533 302° West 388 447 43,000  Level Miami Center
Sun 02:55:53 PM 19.9653 -68.5481 307° West 388 447 43,000  Level Miami Center
Sun 02:56:53 PM 20.0325 -68.6389 308° West 399 459 43,000  Level Miami Center
Sun 02:57:53 PM 20.0958 -68.7319 306° West 399 459 43,000  Level Miami Center
Sun 02:58:53 PM 20.1608 -68.8253 307° West 394 453 43,000  Level Miami Center
Sun 02:59:53 PM 20.2325 -68.9203 309° West 394 453 43,000  Level Miami Center
Sun 03:00:53 PM 20.2994 -69.0111 308° West 394 453 43,000  Level Miami Center
Sun 03:01:53 PM 20.3625 -69.1025 306° West 394 453 43,000  Level Miami Center
Sun 03:02:53 PM 20.4275 -69.1983 306° West 394 453 43,000  Level Miami Center
Sun 03:03:53 PM 20.4986 -69.2917 309° West 394 453 43,000  Level Miami Center
Sun 03:04:53 PM 20.5658 -69.3853 307° West 394 453 43,000  Level Miami Center
Sun 03:05:53 PM 20.6306 -69.4811 306° West 394 453 43,000  Level Miami Center
Sun 03:06:53 PM 20.6997 -69.5750 308° West 394 453 43,000  Level Miami Center
Sun 03:07:53 PM 20.7644 -69.6689 306° West 394 453 43,000  Level Miami Center
Sun 03:08:53 PM 20.8314 -69.7628 307° West 394 453 43,000  Level Miami Center
Sun 03:09:53 PM 20.9003 -69.8592 307° West 394 453 43,000  Level Miami Center
Sun 03:10:53 PM 20.9692 -69.9531 308° West 394 453 43,000  Level Miami Center
Sun 03:11:53 PM 21.0339 -70.0475 306° West 394 453 43,000  Level Miami Center
Sun 03:12:53 PM 21.1025 -70.1439 307° West 394 453 43,000  Level Miami Center
Sun 03:13:53 PM 21.1672 -70.2386 306° West 394 453 43,000  Level Miami Center
Sun 03:14:53 PM 21.2336 -70.3308 308° West 394 453 43,000  Level Miami Center
Sun 03:15:53 PM 21.3003 -70.4256 307° West 394 453 43,000  Level Miami Center
Sun 03:16:53 PM 21.3667 -70.5203 307° West 394 453 43,000  Level Miami Center
Sun 03:17:53 PM 21.4333 -70.6175 306° West 394 453 43,000  Level Miami Center
Sun 03:18:53 PM 21.5017 -70.7122 308° West 394 453 43,000  Level Miami Center
Sun 03:19:53 PM 21.5681 -70.8050 308° West 394 453 43,000  Level Miami Center
Sun 03:20:53 PM 21.6364 -70.9044 306° West 399 459 43,000  Level Miami Center
Sun 03:21:53 PM 21.7028 -70.9975 308° West 399 459 43,000  Level Miami Center
Sun 03:22:53 PM 21.7689 -71.0950 306° West 399 459 43,000  Level Miami Center
Sun 03:23:53 PM 21.8350 -71.1906 307° West 399 459 43,000  Level Miami Center
Sun 03:24:53 PM 21.9100 -71.2992 307° West 399 459 43,000  Level Miami Center
Sun 03:25:53 PM 21.9739 -71.3950 306° West 399 459 43,000  Level Miami Center
Sun 03:26:53 PM 22.0422 -71.4928 307° West 399 459 43,000  Level Miami Center
Sun 03:27:53 PM 22.1081 -71.5864 307° West 399 459 43,000  Level Miami Center
Sun 03:28:53 PM 22.1739 -71.6844 306° West 394 453 43,000  Level Miami Center
Sun 03:29:53 PM 22.2397 -71.7806 307° West 394 453 43,000  Level Miami Center
Sun 03:30:53 PM 22.3056 -71.8767 307° West 394 453 43,000  Level Miami Center
Sun 03:31:53 PM 22.3736 -71.9750 307° West 399 459 43,000  Level Miami Center
Sun 03:32:53 PM 22.4414 -72.0758 306° West 404 465 43,000  Level Miami Center
Sun 03:33:53 PM 22.5117 -72.1811 306° West 415 478 43,000  Level Miami Center
Sun 03:34:53 PM 22.5817 -72.2864 306° West 421 484 43,000  Level Miami Center
Sun 03:35:53 PM 22.6469 -72.3764 308° West 427 491 43,000  Level Miami Center
Sun 03:36:53 PM 22.7167 -72.4797 306° West 427 491 43,000  Level Miami Center
Sun 03:37:53 PM 22.7844 -72.5878 304° West 427 491 43,000  Level Miami Center
Sun 03:38:53 PM 22.8586 -72.6936 307° West 433 498 43,000  Level Miami Center
Sun 03:39:53 PM 22.9303 -72.7994 306° West 433 498 43,000  Level Miami Center
Sun 03:40:53 PM 23.0019 -72.9008 308° West 433 498 43,000  Level Miami Center
Sun 03:41:53 PM 23.0572 -73.0189 297° West 433 498 43,000  Level Miami Center
Sun 03:42:53 PM 23.1267 -73.1228 306° West 433 498 43,000  Level Miami Center
Sun 03:43:53 PM 23.2067 -73.2292 309° West 433 498 43,000  Level Miami Center
Sun 03:44:53 PM 23.2803 -73.3378 306° West 439 505 43,000  Level Miami Center
Sun 03:45:53 PM 23.3475 -73.4444 304° West 439 505 43,000  Level Miami Center
Sun 03:46:53 PM 23.4144 -73.5536 304° West 439 505 43,000  Level Miami Center
Sun 03:47:53 PM 23.4858 -73.6628 306° West 439 505 43,000  Level Miami Center
Sun 03:48:53 PM 23.5614 -73.7719 307° West 439 505 43,000  Level Miami Center
Sun 03:49:53 PM 23.6303 -73.8789 305° West 439 505 43,000  Level Miami Center
Sun 03:50:53 PM 23.6992 -73.9864 305° West 439 505 43,000  Level Miami Center
Sun 03:51:53 PM 23.7722 -74.0936 307° West 439 505 43,000  Level Miami Center
Sun 03:52:53 PM 23.8433 -74.2056 305° West 439 505 43,000  Level Miami Center
Sun 03:53:53 PM 23.9142 -74.3153 305° West 439 505 43,000  Level Miami Center
Sun 03:54:53 PM 23.9850 -74.4253 305° West 444 511 43,000  Level Miami Center
Sun 03:55:53 PM 24.0556 -74.5333 306° West 444 511 43,000  Level Miami Center
Sun 03:56:53 PM 24.1306 -74.6481 306° West 444 511 43,000  Level Miami Center
Sun 03:57:53 PM 24.2011 -74.7583 305° West 444 511 43,000  Level Miami Center
Sun 03:58:53 PM 24.2736 -74.8689 306° West 450 518 43,000  Level Miami Center
Sun 03:59:53 PM 24.3442 -74.9817 304° West 450 518 43,000  Level Miami Center
Sun 04:00:53 PM 24.4167 -75.0969 305° West 450 518 43,000 -50 Level Miami Center
Sun 04:01:53 PM 24.4889 -75.2056 306° West 450 518 42,900 -700 Descending Miami Center
Sun 04:02:53 PM 24.5569 -75.3189 303° West 450 518 41,600 -1,300 Descending Miami Center
Sun 04:03:53 PM 24.6269 -75.4256 306° West 443 510 40,300 -1,300 Descending Miami Center
Sun 04:04:53 PM 24.6906 -75.5275 304° West 432 497 39,000 -1,300 Descending Miami Center
Sun 04:05:53 PM 24.7606 -75.6389 305° West 432 497 37,700 -1,300 Descending Miami Center
Sun 04:06:53 PM 24.8306 -75.7506 305° West 432 497 36,400 -1,300 Descending Miami Center
Sun 04:07:53 PM 24.9003 -75.8622 305° West 438 504 35,100 -1,200 Descending Miami Center
Sun 04:08:53 PM 24.9742 -75.9853 304° West 438 504 34,000 -550 Descending Miami Center
Sun 04:09:53 PM 25.0522 -76.0994 307° West 451 519 34,000  Level Miami Center
Sun 04:10:53 PM 25.1217 -76.2139 304° West 456 525 34,000  Level Miami Center
Sun 04:11:53 PM 25.1931 -76.3283 305° West 456 525 34,000  Level Miami Center
Sun 04:12:53 PM 25.2625 -76.4428 304° West 456 525 34,000  Level Miami Center
Sun 04:13:53 PM 25.3317 -76.5553 304° West 451 519 34,000  Level Miami Center
Sun 04:14:53 PM 25.4050 -76.6725 305° West 458 527 34,000  Level Miami Center
Sun 04:15:53 PM 25.4761 -76.7897 304° West 463 533 34,000  Level Miami Center
Sun 04:16:53 PM 25.5494 -76.9072 305° West 463 533 34,000  Level Miami Center
Sun 04:17:53 PM 25.6225 -77.0292 304° West 463 533 34,000  Level Miami Center
Sun 04:18:53 PM 25.6956 -77.1469 305° West 463 533 34,000  Level Miami Center
Sun 04:19:53 PM 25.7661 -77.2647 304° West 463 533 34,000  Level Miami Center
Sun 04:20:53 PM 25.8369 -77.3806 304° West 463 533 34,000  Level Miami Center
Sun 04:21:53 PM 25.9014 -77.4869 304° West 463 533 34,000  Level Miami Center
Sun 04:22:53 PM 25.9697 -77.6031 303° West 458 527 34,000 -500 Level Miami Center
Sun 04:23:53 PM 26.0381 -77.7144 304° West 458 527 33,000 -1,150 Descending Miami Center
Sun 04:24:53 PM 26.0981 -77.8258 301° West 446 513 31,700 -1,250 Descending Miami Center
Sun 04:25:53 PM 26.1619 -77.9514 300° West 446 513 30,500 -1,250 Descending Miami Center
Sun 04:26:53 PM 26.2256 -78.0747 300° West 458 527 29,200 -1,300 Descending Miami Center
Sun 04:27:53 PM 26.2914 -78.1914 302° West 458 527 27,900 -1,350 Descending Miami Center
Sun 04:28:53 PM 26.3572 -78.3033 303° West 445 512 26,500 -1,500 Descending Miami Center
Sun 04:29:53 PM 26.4186 -78.4272 299° West 450 518 24,900 -1,600 Descending Miami Center
Sun 04:30:53 PM 26.4864 -78.5442 303° West 450 518 23,300 -1,650 Descending Miami Center
Sun 04:31:53 PM 26.5542 -78.6472 306° West 436 502 21,600 -1,600 Descending Miami Center
Sun 04:32:53 PM 26.6153 -78.7575 302° West 425 489 20,100 -1,550 Descending Miami Center
Sun 04:33:53 PM 26.6681 -78.8675 298° West 412 474 18,500 -1,500 Descending Miami Center
Sun 04:34:53 PM 26.7167 -78.9753 297° West 396 456 17,100 -1,500 Descending Miami Center
Sun 04:35:53 PM 26.7736 -79.0789 302° West 390 449 15,500 -1,600 Descending Miami Center
Sun 04:36:53 PM 26.8369 -79.1778 306° West 385 443 13,900 -1,700 Descending Miami Center
Sun 04:37:53 PM 26.9064 -79.2769 308° West 384 442 12,100 -1,650 Descending Miami Center
Sun 04:38:53 PM 26.9675 -79.3714 306° West 384 442 10,600 -1,050 Descending Miami Center
Sun 04:39:53 PM 27.0203 -79.4519 306° West 371 427 10,000 -450 Descending Miami Center
Sun 04:40:53 PM 27.0833 -79.5514 305° West 364 419 9,700 -750 Descending Miami Center
Sun 04:41:53 PM 27.1339 -79.6272 307° West 332 382 8,500 -1,200 Descending Miami Center
Sun 04:42:53 PM 27.1828 -79.7031 306° West 307 353 7,300 -1,200 Descending Miami Center
Sun 04:43:53 PM 27.2231 -79.7694 304° West 293 337 6,100 -1,150 Descending Miami Center
Sun 04:44:53 PM 27.2675 -79.8383 306° West 282 325 5,000 -1,000 Descending Miami Center
Sun 04:45:53 PM 27.3183 -79.9144 307° West 282 325 4,100 -500 Descending Miami Center
Sun 04:46:53 PM 27.3500 -79.9900 295° West 275 316 4,000 -50 Descending Miami Center
Sun 04:47:53 PM 27.3564 -80.0792 275° West 277 319 4,000 -450 Level Miami Center
Sun 04:48:53 PM 27.3631 -80.1611 275° West 293 337 3,100 -500 Descending Miami Center
Sun 04:49:53 PM 27.3714 -80.2456 276° West 287 330 3,000 -50 Descending Miami Center
Sun 04:50:53 PM 27.4031 -80.3214 295° West 258 297 3,000 -650 Level Miami Center
Sun 04:51:53 PM 27.4414 -80.3811 306° West 232 267 1,700 -700 Descending Miami Center
Sun 04:52:53 PM 27.4672 -80.4308 300° West 208 239 1,600 -500 Descending Miami Center
Sun 04:53:53 PM 27.4947 -80.4156 26° Northeast 106 122 700 -900 Descending Miami Center

Login

Don't have an account? Register now (free) for customized features, flight alerts, and more!